Heat Index SAI AWOS Graphical Display Untitled Document
Bertrand Chaffee Hospital Heliport (2NK6) Springville, New York, USA
310
06:11
22/09/2014
13
14
290V350
29.81
N/A
1420
50(F), 10(C)
49(F), 9(C)
45 F
96%
BKN006 BKN010 OVC026
2
-DZ
0"
N/A
06:11 zulu Wind 310 at 13 Knots, Gusting 14 Knots, Altimeter 29.81
METAR K2NK6 220611Z AUTO 31013G14KT 290V350 2SM -DZ BKN006 BKN010 OVC026 10/09 A2981 A02 P0000
METAR:
FAA Disclaimer--Advisory Use ONLY, not for flight info--
INFO:
Wind Direction:
Wind Speed:
Wind Gust:
Wind Variable:
Altimeter:
Dens Alt:
Elev:
Temp:
Dwpt:
Wind Chill
Rel Humidity:
Ceiling:
Visibility:
Prsnt Wea:
PCPN:
Remarks:
How to read the WebPage